Time;durP1;ratioP1;P1;durP2;ratioP2;P2;SDS_P1;SDS_P2;PMS_P1;PMS_P2;Temp;Humidity;BMP_temperature;BMP_pressure;BME280_temperature;BME280_humidity;BME280_pressure;Samples;Min_cycle;Max_cycle;Signal;HPM_P1;HPM_P2
2022/05/19 00:00:36;;;;;;;0.22;0.20;;;;;;;;;;4180621;28;20098;-34
2022/05/19 00:02:37;;;;;;;0.20;0.20;;;;;;;;;;4179730;28;20386;-34
2022/05/19 00:04:38;;;;;;;0.30;0.20;;;;;;;;;;4181274;28;20107;-34
2022/05/19 00:06:40;;;;;;;0.52;0.15;;;;;;;;;;4181859;28;20059;-33
2022/05/19 00:08:42;;;;;;;0.60;0.30;;;;;;;;;;4181147;28;20477;-34
2022/05/19 00:10:43;;;;;;;0.63;0.28;;;;;;;;;;4181532;28;20091;-34
2022/05/19 00:12:44;;;;;;;0.20;0.20;;;;;;;;;;4180342;28;20546;-34
2022/05/19 00:14:45;;;;;;;0.45;0.40;;;;;;;;;;4180834;28;20044;-33
2022/05/19 00:16:46;;;;;;;0.30;0.20;;;;;;;;;;4181279;28;20049;-34
2022/05/19 00:18:47;;;;;;;0.15;0.15;;;;;;;;;;4193814;28;20408;-34
2022/05/19 00:20:47;;;;;;;0.98;0.40;;;;;;;;;;4180168;28;20056;-34
2022/05/19 00:22:48;;;;;;;0.75;0.30;;;;;;;;;;4180249;28;20056;-34
2022/05/19 00:24:49;;;;;;;0.32;0.20;;;;;;;;;;4179750;28;20080;-33
2022/05/19 00:26:50;;;;;;;0.25;0.20;;;;;;;;;;4180081;28;20056;-34
2022/05/19 00:28:51;;;;;;;0.70;0.20;;;;;;;;;;4178057;28;20371;-34
2022/05/19 00:30:52;;;;;;;0.60;0.20;;;;;;;;;;4179888;28;20396;-34
2022/05/19 00:32:53;;;;;;;0.15;0.15;;;;;;;;;;4179905;28;20107;-34
2022/05/19 00:34:54;;;;;;;0.90;0.40;;;;;;;;;;4179858;28;20527;-33
2022/05/19 00:36:58;;;;;;;0.32;0.30;;;;;;;;;;4179673;28;20083;-34
2022/05/19 00:38:59;;;;;;;0.10;0.10;;;;;;;;;;4180100;28;20048;-34
2022/05/19 00:41:00;;;;;;;0.10;0.10;;;;;;;;;;4179809;28;20404;-34
2022/05/19 00:43:02;;;;;;;0.20;0.20;;;;;;;;;;4181040;28;20056;-34
2022/05/19 00:45:04;;;;;;;0.10;0.10;;;;;;;;;;4180425;28;20056;-34
2022/05/19 00:47:07;;;;;;;0.50;0.30;;;;;;;;;;4180476;28;20106;-33
2022/05/19 00:49:11;;;;;;;0.20;0.20;;;;;;;;;;4180266;28;20053;-34
2022/05/19 00:51:12;;;;;;;0.25;0.10;;;;;;;;;;4179461;28;20053;-34
2022/05/19 00:53:19;;;;;;;0.50;0.22;;;;;;;;;;4180987;28;20049;-34
2022/05/19 00:55:24;;;;;;;0.68;0.30;;;;;;;;;;4179121;28;20114;-34
2022/05/19 00:57:30;;;;;;;0.32;0.30;;;;;;;;;;4178493;28;20052;-34
2022/05/19 00:59:33;;;;;;;0.15;0.10;;;;;;;;;;4179006;28;20067;-34
2022/05/19 01:01:37;;;;;;;0.20;0.20;;;;;;;;;;4180523;28;20096;-34
2022/05/19 01:03:44;;;;;;;0.13;0.13;;;;;;;;;;4180466;28;20136;-33
2022/05/19 01:05:48;;;;;;;0.50;0.40;;;;;;;;;;4181043;28;20099;-34
2022/05/19 01:08:16;;;;;;;0.30;0.17;;;;;;;;;;4179858;28;20045;-34
2022/05/19 01:10:17;;;;;;;0.50;0.30;;;;;;;;;;4178933;28;20044;-34
2022/05/19 01:12:18;;;;;;;0.38;0.28;;;;;;;;;;4180559;28;20554;-34
2022/05/19 01:14:19;;;;;;;0.43;0.20;;;;;;;;;;4179909;28;20091;-33
2022/05/19 01:16:20;;;;;;;0.35;0.30;;;;;;;;;;4180448;28;20521;-33
2022/05/19 01:18:23;;;;;;;0.10;0.10;;;;;;;;;;4180309;28;20127;-33
2022/05/19 01:20:25;;;;;;;0.30;0.25;;;;;;;;;;4180211;28;20044;-33
2022/05/19 01:22:32;;;;;;;0.45;0.20;;;;;;;;;;4180371;28;20048;-33
2022/05/19 01:24:37;;;;;;;0.65;0.22;;;;;;;;;;4180191;28;20098;-34
2022/05/19 01:26:40;;;;;;;0.10;0.10;;;;;;;;;;4179141;28;20106;-33
2022/05/19 01:28:41;;;;;;;0.15;0.15;;;;;;;;;;4179888;28;20167;-34
2022/05/19 01:30:43;;;;;;;0.20;0.10;;;;;;;;;;4180203;28;20083;-33
2022/05/19 01:32:44;;;;;;;0.30;0.28;;;;;;;;;;4175040;28;20045;-33
2022/05/19 01:34:45;;;;;;;0.20;0.20;;;;;;;;;;4163484;28;20099;-33
2022/05/19 01:36:46;;;;;;;0.80;0.30;;;;;;;;;;4163750;28;20049;-33
2022/05/19 01:38:50;;;;;;;2.28;0.22;;;;;;;;;;4178721;28;20060;-34
2022/05/19 01:40:57;;;;;;;0.20;0.20;;;;;;;;;;4167502;28;20451;-34
2022/05/19 01:43:08;;;;;;;0.30;0.20;;;;;;;;;;4179986;28;20094;-33
2022/05/19 01:45:10;;;;;;;0.68;0.30;;;;;;;;;;4179687;28;20048;-33
2022/05/19 01:47:23;;;;;;;0.80;0.15;;;;;;;;;;4180302;28;20053;-33
2022/05/19 01:49:34;;;;;;;0.38;0.28;;;;;;;;;;4179945;28;20049;-33
2022/05/19 01:51:35;;;;;;;0.28;0.20;;;;;;;;;;4179904;28;20052;-33
2022/05/19 01:53:41;;;;;;;0.20;0.20;;;;;;;;;;4180074;28;20421;-34
2022/05/19 01:55:56;;;;;;;0.20;0.15;;;;;;;;;;4180164;28;20082;-34
2022/05/19 01:58:06;;;;;;;0.73;0.28;;;;;;;;;;4179093;28;20045;-34
2022/05/19 02:00:10;;;;;;;0.52;0.20;;;;;;;;;;4179171;28;20056;-33
2022/05/19 02:02:35;;;;;;;0.10;0.10;;;;;;;;;;4179744;28;20087;-34
2022/05/19 02:04:47;;;;;;;0.10;0.10;;;;;;;;;;4211322;28;20051;-33
2022/05/19 02:06:56;;;;;;;0.30;0.20;;;;;;;;;;4179955;28;20053;-34
2022/05/19 02:09:08;;;;;;;0.30;0.30;;;;;;;;;;4211555;28;20044;-34
2022/05/19 02:11:10;;;;;;;1.13;0.32;;;;;;;;;;4179667;28;20060;-33
2022/05/19 02:13:11;;;;;;;0.43;0.20;;;;;;;;;;4178909;28;20417;-33
2022/05/19 02:15:15;;;;;;;0.13;0.13;;;;;;;;;;4179136;28;20052;-34
2022/05/19 02:17:19;;;;;;;0.20;0.20;;;;;;;;;;4180001;28;20048;-33
2022/05/19 02:19:23;;;;;;;0.43;0.20;;;;;;;;;;4179376;28;20049;-33
2022/05/19 02:21:25;;;;;;;0.20;0.20;;;;;;;;;;4178582;28;20053;-34
2022/05/19 02:23:26;;;;;;;0.28;0.20;;;;;;;;;;4179846;28;20061;-34
2022/05/19 02:25:29;;;;;;;0.30;0.20;;;;;;;;;;4179175;28;20049;-34
2022/05/19 02:27:33;;;;;;;0.10;0.10;;;;;;;;;;4179490;28;20497;-33
2022/05/19 02:29:34;;;;;;;0.60;0.20;;;;;;;;;;4177986;28;20045;-33
2022/05/19 02:31:35;;;;;;;0.20;0.20;;;;;;;;;;4178264;28;20600;-34
2022/05/19 02:33:36;;;;;;;0.20;0.15;;;;;;;;;;4179248;28;20049;-34
2022/05/19 02:35:38;;;;;;;0.10;0.10;;;;;;;;;;4179370;28;20396;-34
2022/05/19 02:37:39;;;;;;;0.32;0.20;;;;;;;;;;4179766;28;20045;-33
2022/05/19 02:39:40;;;;;;;0.38;0.15;;;;;;;;;;4179284;28;20197;-33
2022/05/19 02:41:41;;;;;;;0.20;0.20;;;;;;;;;;4179311;28;20053;-33
2022/05/19 02:43:42;;;;;;;0.10;0.10;;;;;;;;;;4178242;28;20065;-34
2022/05/19 02:45:43;;;;;;;0.30;0.22;;;;;;;;;;4179442;28;20345;-34
2022/05/19 02:47:44;;;;;;;0.68;0.30;;;;;;;;;;4179560;28;20107;-33
2022/05/19 02:49:45;;;;;;;1.02;0.30;;;;;;;;;;4179165;28;20139;-34
2022/05/19 02:51:50;;;;;;;0.30;0.20;;;;;;;;;;4179286;28;20057;-33
2022/05/19 02:53:51;;;;;;;0.52;0.13;;;;;;;;;;4194536;28;20206;-33
2022/05/19 02:55:52;;;;;;;0.30;0.10;;;;;;;;;;4179229;28;20053;-34
2022/05/19 02:57:53;;;;;;;0.10;0.10;;;;;;;;;;4178895;28;20056;-34
2022/05/19 02:59:57;;;;;;;0.20;0.20;;;;;;;;;;4186665;28;20044;-33
2022/05/19 03:01:58;;;;;;;0.20;0.20;;;;;;;;;;4178221;28;20053;-34
2022/05/19 03:03:59;;;;;;;0.25;0.20;;;;;;;;;;4193063;28;20053;-34
2022/05/19 03:06:00;;;;;;;0.28;0.17;;;;;;;;;;4179040;28;20168;-34
2022/05/19 03:08:02;;;;;;;0.40;0.30;;;;;;;;;;4179030;28;20088;-34
2022/05/19 03:10:03;;;;;;;0.30;0.30;;;;;;;;;;4179199;28;20049;-33
2022/05/19 03:12:04;;;;;;;0.30;0.20;;;;;;;;;;4179023;28;20053;-34
2022/05/19 03:14:05;;;;;;;0.55;0.20;;;;;;;;;;4178451;28;20052;-34
2022/05/19 03:16:07;;;;;;;0.20;0.10;;;;;;;;;;4178990;28;20084;-34
2022/05/19 03:18:08;;;;;;;0.20;0.20;;;;;;;;;;4178280;28;20102;-34
2022/05/19 03:20:10;;;;;;;0.40;0.20;;;;;;;;;;4178777;28;20053;-33
2022/05/19 03:22:11;;;;;;;0.47;0.30;;;;;;;;;;4179147;28;20439;-33
2022/05/19 03:24:13;;;;;;;0.40;0.20;;;;;;;;;;4177817;28;20057;-34
2022/05/19 03:26:14;;;;;;;0.20;0.20;;;;;;;;;;4177863;28;20085;-33
2022/05/19 03:28:15;;;;;;;0.20;0.10;;;;;;;;;;4177922;28;20471;-34
2022/05/19 03:30:17;;;;;;;0.47;0.20;;;;;;;;;;4176212;28;20124;-33
2022/05/19 03:32:18;;;;;;;0.10;0.10;;;;;;;;;;4179441;28;20041;-34
2022/05/19 03:34:19;;;;;;;0.52;0.25;;;;;;;;;;4181988;28;20092;-34
2022/05/19 03:36:20;;;;;;;0.20;0.10;;;;;;;;;;4181965;28;20433;-33
2022/05/19 03:38:21;;;;;;;0.30;0.20;;;;;;;;;;4181820;28;20045;-34
2022/05/19 03:40:22;;;;;;;0.50;0.20;;;;;;;;;;4180892;28;20072;-33
2022/05/19 03:42:23;;;;;;;0.32;0.13;;;;;;;;;;4180653;28;20049;-36
2022/05/19 03:44:24;;;;;;;0.13;0.10;;;;;;;;;;4181610;28;20519;-34
2022/05/19 03:46:25;;;;;;;0.50;0.30;;;;;;;;;;4182032;28;20493;-34
2022/05/19 03:48:26;;;;;;;0.55;0.30;;;;;;;;;;4182048;28;20049;-34
2022/05/19 03:50:26;;;;;;;0.30;0.20;;;;;;;;;;4181847;28;20141;-33
2022/05/19 03:52:28;;;;;;;0.30;0.10;;;;;;;;;;4181738;28;20045;-34
2022/05/19 03:54:29;;;;;;;0.30;0.20;;;;;;;;;;4181430;28;20049;-33
2022/05/19 03:56:30;;;;;;;0.45;0.20;;;;;;;;;;4180502;28;20183;-34
2022/05/19 03:58:31;;;;;;;0.20;0.20;;;;;;;;;;4181755;28;20083;-33
2022/05/19 04:00:33;;;;;;;0.20;0.20;;;;;;;;;;4181379;28;20061;-33
2022/05/19 04:02:34;;;;;;;0.35;0.20;;;;;;;;;;4181410;28;20052;-33
2022/05/19 04:04:35;;;;;;;0.20;0.13;;;;;;;;;;4181407;28;20086;-34
2022/05/19 04:06:36;;;;;;;0.20;0.20;;;;;;;;;;4181603;28;20102;-33
2022/05/19 04:08:37;;;;;;;0.17;0.10;;;;;;;;;;4179901;28;20099;-34
2022/05/19 04:10:42;;;;;;;0.30;0.20;;;;;;;;;;4180950;28;20095;-33
2022/05/19 04:12:43;;;;;;;0.52;0.20;;;;;;;;;;4180665;28;20056;-34
2022/05/19 04:14:44;;;;;;;0.47;0.20;;;;;;;;;;4181180;28;20053;-33
2022/05/19 04:16:45;;;;;;;0.50;0.20;;;;;;;;;;4181495;28;20461;-34
2022/05/19 04:18:46;;;;;;;0.20;0.20;;;;;;;;;;4181199;28;20068;-34
2022/05/19 04:20:47;;;;;;;0.20;0.20;;;;;;;;;;4181253;28;20178;-34
2022/05/19 04:22:48;;;;;;;0.35;0.20;;;;;;;;;;4181229;28;20040;-33
2022/05/19 04:24:49;;;;;;;0.20;0.20;;;;;;;;;;4181449;28;20098;-33
2022/05/19 04:26:50;;;;;;;1.58;0.43;;;;;;;;;;4181058;28;20099;-34
2022/05/19 04:28:51;;;;;;;0.32;0.28;;;;;;;;;;4179220;28;20084;-34
2022/05/19 04:30:51;;;;;;;1.52;0.35;;;;;;;;;;4180749;28;20088;-34
2022/05/19 04:32:52;;;;;;;0.75;0.30;;;;;;;;;;4181283;28;20103;-33
2022/05/19 04:34:53;;;;;;;0.20;0.20;;;;;;;;;;4196430;28;20801;-34
2022/05/19 04:36:54;;;;;;;0.30;0.30;;;;;;;;;;4181089;28;20159;-34
2022/05/19 04:38:55;;;;;;;0.30;0.10;;;;;;;;;;4180988;28;20049;-33
2022/05/19 04:40:59;;;;;;;2.53;0.30;;;;;;;;;;4181491;28;20040;-33
2022/05/19 04:43:00;;;;;;;1.17;0.50;;;;;;;;;;4181130;28;20397;-33
2022/05/19 04:45:01;;;;;;;0.52;0.30;;;;;;;;;;4179702;28;20298;-33
2022/05/19 04:47:02;;;;;;;1.42;0.43;;;;;;;;;;4180204;28;20048;-34
2022/05/19 04:49:03;;;;;;;1.08;0.25;;;;;;;;;;4180796;28;20455;-34
2022/05/19 04:51:04;;;;;;;0.40;0.20;;;;;;;;;;4181187;28;20084;-34
2022/05/19 04:53:05;;;;;;;0.70;0.45;;;;;;;;;;4181136;28;20049;-33
2022/05/19 04:55:07;;;;;;;0.73;0.30;;;;;;;;;;4180887;28;20086;-34
2022/05/19 04:57:10;;;;;;;0.90;0.50;;;;;;;;;;4180970;28;20053;-33
2022/05/19 04:59:14;;;;;;;0.40;0.30;;;;;;;;;;4180509;28;20106;-33
2022/05/19 05:01:15;;;;;;;1.08;0.40;;;;;;;;;;4170066;28;20061;-34
2022/05/19 05:03:16;;;;;;;0.20;0.20;;;;;;;;;;4162255;28;20495;-33
2022/05/19 05:05:17;;;;;;;0.65;0.40;;;;;;;;;;4167987;28;20064;-34
2022/05/19 05:07:18;;;;;;;0.60;0.30;;;;;;;;;;4178712;28;20114;-33
2022/05/19 05:09:19;;;;;;;0.20;0.20;;;;;;;;;;4176788;28;20140;-34
2022/05/19 05:11:20;;;;;;;0.40;0.38;;;;;;;;;;4178579;28;20103;-33
2022/05/19 05:13:21;;;;;;;0.85;0.20;;;;;;;;;;4178063;28;20159;-34
2022/05/19 05:15:25;;;;;;;0.38;0.38;;;;;;;;;;4176410;28;20053;-33
2022/05/19 05:17:26;;;;;;;0.75;0.45;;;;;;;;;;4178402;28;20072;-34
2022/05/19 05:19:27;;;;;;;0.60;0.50;;;;;;;;;;4177928;28;20566;-33
2022/05/19 05:21:28;;;;;;;0.52;0.32;;;;;;;;;;4176463;28;20087;-34
2022/05/19 05:23:29;;;;;;;0.50;0.25;;;;;;;;;;4207069;28;20135;-34
2022/05/19 05:25:31;;;;;;;0.93;0.50;;;;;;;;;;4170999;28;20068;-33
2022/05/19 05:27:32;;;;;;;0.90;0.30;;;;;;;;;;4171928;28;20053;-34
2022/05/19 05:29:33;;;;;;;1.27;0.40;;;;;;;;;;4178388;28;20052;-34
2022/05/19 05:31:34;;;;;;;0.52;0.40;;;;;;;;;;4175391;28;20040;-33
2022/05/19 05:33:35;;;;;;;0.43;0.40;;;;;;;;;;4174884;28;20041;-34
2022/05/19 05:35:37;;;;;;;0.82;0.40;;;;;;;;;;4176658;28;20056;-34
2022/05/19 05:37:38;;;;;;;1.10;0.60;;;;;;;;;;4176830;28;20060;-34
2022/05/19 05:39:39;;;;;;;1.35;0.68;;;;;;;;;;4174641;28;20053;-34
2022/05/19 05:41:40;;;;;;;0.68;0.50;;;;;;;;;;4177399;28;20056;-34
2022/05/19 05:43:40;;;;;;;2.58;0.73;;;;;;;;;;4177661;28;20496;-34
2022/05/19 05:45:42;;;;;;;0.85;0.50;;;;;;;;;;4177198;28;20480;-34
2022/05/19 05:47:43;;;;;;;2.05;0.80;;;;;;;;;;4176599;28;20083;-34
2022/05/19 05:49:44;;;;;;;0.68;0.55;;;;;;;;;;4177209;28;20049;-33
2022/05/19 05:51:46;;;;;;;1.20;0.55;;;;;;;;;;4175276;28;20079;-34
2022/05/19 05:53:47;;;;;;;0.60;0.57;;;;;;;;;;4175626;28;20103;-34
2022/05/19 05:55:48;;;;;;;2.08;0.50;;;;;;;;;;4174355;28;20053;-33
2022/05/19 05:57:50;;;;;;;0.70;0.57;;;;;;;;;;4179087;28;20041;-33
2022/05/19 05:59:51;;;;;;;0.95;0.50;;;;;;;;;;4174743;28;20052;-33
2022/05/19 06:01:52;;;;;;;1.05;0.60;;;;;;;;;;4175390;28;20061;-33
2022/05/19 06:03:53;;;;;;;1.85;0.70;;;;;;;;;;4173884;28;20072;-33
2022/05/19 06:05:55;;;;;;;1.27;0.65;;;;;;;;;;4175255;28;20048;-33
2022/05/19 06:07:55;;;;;;;0.85;0.52;;;;;;;;;;4173763;28;20527;-33
2022/05/19 06:09:57;;;;;;;0.98;0.52;;;;;;;;;;4175040;28;20056;-33
2022/05/19 06:11:58;;;;;;;1.90;0.80;;;;;;;;;;4175180;28;20528;-33
2022/05/19 06:13:59;;;;;;;0.75;0.60;;;;;;;;;;4172311;28;20145;-33
2022/05/19 06:16:00;;;;;;;0.65;0.60;;;;;;;;;;4174283;28;20135;-33
2022/05/19 06:18:01;;;;;;;0.98;0.70;;;;;;;;;;4173814;28;20045;-33
2022/05/19 06:20:02;;;;;;;2.35;0.50;;;;;;;;;;4168338;28;20459;-34
2022/05/19 06:22:03;;;;;;;1.60;0.57;;;;;;;;;;4171459;28;20414;-33
2022/05/19 06:24:08;;;;;;;0.88;0.70;;;;;;;;;;4160012;28;20095;-33
2022/05/19 06:26:09;;;;;;;1.67;0.60;;;;;;;;;;4159285;28;20095;-34
2022/05/19 06:28:11;;;;;;;0.98;0.60;;;;;;;;;;4166403;28;20079;-34
2022/05/19 06:30:13;;;;;;;2.30;0.70;;;;;;;;;;4168084;28;20810;-34
2022/05/19 06:32:14;;;;;;;1.23;0.68;;;;;;;;;;4168967;28;20056;-34
2022/05/19 06:34:16;;;;;;;0.82;0.68;;;;;;;;;;4172410;28;20482;-34
2022/05/19 06:36:19;;;;;;;1.83;0.70;;;;;;;;;;4177782;28;20056;-34
2022/05/19 06:38:20;;;;;;;1.40;0.88;;;;;;;;;;4180088;28;20500;-34
2022/05/19 06:40:24;;;;;;;1.52;0.80;;;;;;;;;;4172098;28;20053;-34
2022/05/19 06:42:25;;;;;;;2.15;0.70;;;;;;;;;;4169501;28;20053;-34
2022/05/19 06:44:28;;;;;;;0.77;0.70;;;;;;;;;;4156079;28;20049;-33
2022/05/19 06:46:30;;;;;;;1.02;0.80;;;;;;;;;;4169736;28;20045;-34
2022/05/19 06:48:31;;;;;;;2.67;0.88;;;;;;;;;;4177258;28;20135;-33
2022/05/19 06:50:32;;;;;;;2.67;0.80;;;;;;;;;;4164362;28;20058;-34
2022/05/19 06:52:33;;;;;;;0.63;0.63;;;;;;;;;;4162372;28;20106;-34
2022/05/19 06:54:34;;;;;;;1.38;0.80;;;;;;;;;;4168888;28;20045;-34
2022/05/19 06:56:36;;;;;;;1.10;0.70;;;;;;;;;;4169953;28;20055;-33
2022/05/19 06:58:37;;;;;;;1.10;0.80;;;;;;;;;;4173104;28;20048;-33
2022/05/19 07:00:39;;;;;;;2.50;1.00;;;;;;;;;;4162386;28;20075;-34
2022/05/19 07:02:46;;;;;;;2.08;0.70;;;;;;;;;;4167035;28;20110;-34
2022/05/19 07:04:47;;;;;;;0.82;0.70;;;;;;;;;;4167696;28;20060;-34
2022/05/19 07:06:48;;;;;;;1.50;0.98;;;;;;;;;;4154393;28;20461;-33
2022/05/19 07:08:49;;;;;;;1.95;0.77;;;;;;;;;;4169491;28;20567;-34
2022/05/19 07:10:50;;;;;;;2.80;0.85;;;;;;;;;;4199852;28;20059;-34
2022/05/19 07:12:52;;;;;;;1.65;0.90;;;;;;;;;;4163636;28;20143;-34
2022/05/19 07:14:53;;;;;;;1.45;0.95;;;;;;;;;;4165856;28;20394;-34
2022/05/19 07:16:55;;;;;;;2.47;0.95;;;;;;;;;;4172250;28;20045;-34
2022/05/19 07:20:43;;;;;;;2.22;1.00;;;;;;;;;;4170891;28;20482;-33
2022/05/19 07:21:18;;;;;;;0.68;0.68;;;;;;;;;;4168292;28;20099;-34
2022/05/19 07:23:21;;;;;;;1.25;0.80;;;;;;;;;;4166366;28;20142;-34
2022/05/19 07:25:22;;;;;;;1.45;0.77;;;;;;;;;;4161693;28;20445;-34
2022/05/19 07:27:22;;;;;;;1.08;0.88;;;;;;;;;;4172757;28;20059;-34
2022/05/19 07:29:24;;;;;;;2.55;0.95;;;;;;;;;;4172765;28;20151;-33
2022/05/19 07:31:25;;;;;;;4.22;1.27;;;;;;;;;;4169999;28;20052;-34
2022/05/19 07:33:28;;;;;;;3.10;0.70;;;;;;;;;;4172312;28;20571;-34
2022/05/19 07:35:29;;;;;;;1.50;0.75;;;;;;;;;;4168140;28;20048;-33
2022/05/19 07:37:31;;;;;;;1.15;0.70;;;;;;;;;;4174198;28;20133;-34
2022/05/19 07:39:32;;;;;;;6.07;1.00;;;;;;;;;;4198299;28;20382;-33
2022/05/19 07:41:33;;;;;;;1.98;0.70;;;;;;;;;;4169872;28;20440;-33
2022/05/19 07:43:37;;;;;;;0.85;0.70;;;;;;;;;;4152873;28;20053;-33
2022/05/19 07:45:38;;;;;;;1.35;0.55;;;;;;;;;;4168459;28;20080;-33
2022/05/19 07:47:40;;;;;;;1.38;0.70;;;;;;;;;;4173697;28;20401;-33
2022/05/19 07:49:43;;;;;;;1.67;0.90;;;;;;;;;;4162411;28;20139;-33
2022/05/19 07:51:45;;;;;;;1.40;0.90;;;;;;;;;;4167903;28;20064;-33
2022/05/19 07:53:46;;;;;;;2.22;0.70;;;;;;;;;;4162352;28;20102;-33
2022/05/19 07:55:47;;;;;;;1.40;0.60;;;;;;;;;;4171592;28;20110;-33
2022/05/19 07:57:48;;;;;;;1.90;0.80;;;;;;;;;;4163283;28;20102;-33
2022/05/19 07:59:49;;;;;;;1.92;0.95;;;;;;;;;;4166236;28;20110;-33
2022/05/19 08:01:50;;;;;;;1.15;0.75;;;;;;;;;;4162870;28;20076;-33
2022/05/19 08:03:51;;;;;;;1.13;0.77;;;;;;;;;;4153319;28;20130;-33
2022/05/19 08:05:52;;;;;;;1.00;0.70;;;;;;;;;;4165558;28;20518;-34
2022/05/19 08:07:53;;;;;;;0.57;0.50;;;;;;;;;;4166158;28;20048;-33
2022/05/19 08:12:15;;;;;;;1.08;0.82;;;;;;;;;;4170315;28;20048;-33
2022/05/19 08:16:36;;;;;;;;;;;;;;;;;;4169502;28;20118;-33
2022/05/19 08:18:37;;;;;;;0.90;0.73;;;;;;;;;;4167884;28;20284;-33
2022/05/19 08:20:39;;;;;;;1.25;0.50;;;;;;;;;;4167410;28;20103;-33
2022/05/19 08:22:40;;;;;;;0.68;0.60;;;;;;;;;;4170070;28;20053;-33
2022/05/19 08:24:46;;;;;;;2.42;0.85;;;;;;;;;;4167351;28;20129;-33
2022/05/19 08:26:47;;;;;;;2.15;0.73;;;;;;;;;;4169475;28;20796;-33
2022/05/19 08:28:49;;;;;;;1.38;0.68;;;;;;;;;;4170749;28;20212;-33
2022/05/19 08:30:51;;;;;;;1.60;0.55;;;;;;;;;;4168073;28;20385;-33
2022/05/19 08:32:55;;;;;;;0.68;0.60;;;;;;;;;;4163156;28;20107;-33
2022/05/19 08:34:57;;;;;;;1.40;0.63;;;;;;;;;;4168663;28;20049;-33
2022/05/19 08:37:00;;;;;;;2.92;0.77;;;;;;;;;;4167831;28;20091;-33
2022/05/19 08:39:01;;;;;;;0.55;0.50;;;;;;;;;;4169662;28;20480;-33
2022/05/19 08:41:02;;;;;;;1.83;0.50;;;;;;;;;;4169593;28;20110;-33
2022/05/19 08:43:03;;;;;;;2.60;0.60;;;;;;;;;;4170834;28;20130;-33
2022/05/19 08:45:11;;;;;;;2.42;1.15;;;;;;;;;;4170380;28;20496;-33
2022/05/19 08:47:12;;;;;;;1.15;0.68;;;;;;;;;;4167777;28;20098;-34
2022/05/19 08:49:16;;;;;;;3.10;0.70;;;;;;;;;;4163216;28;20386;-34
2022/05/19 08:51:17;;;;;;;2.80;0.50;;;;;;;;;;4169196;28;20106;-34
2022/05/19 08:53:18;;;;;;;0.85;0.45;;;;;;;;;;4169992;28;20101;-33
2022/05/19 08:55:19;;;;;;;1.38;0.60;;;;;;;;;;4168324;28;20483;-34
2022/05/19 08:57:29;;;;;;;0.63;0.50;;;;;;;;;;4172391;28;21408;-34
2022/05/19 08:59:40;;;;;;;0.73;0.50;;;;;;;;;;4170581;28;20480;-33
2022/05/19 09:01:44;;;;;;;1.00;0.45;;;;;;;;;;4165644;28;20056;-33
2022/05/19 09:03:52;;;;;;;0.90;0.60;;;;;;;;;;4167738;28;20053;-34
2022/05/19 09:06:13;;;;;;;0.50;0.40;;;;;;;;;;4163383;28;20055;-33
2022/05/19 09:08:32;;;;;;;1.45;0.50;;;;;;;;;;4160699;28;20367;-33
2022/05/19 09:10:40;;;;;;;1.02;0.70;;;;;;;;;;4170310;28;20083;-42
2022/05/19 09:12:43;;;;;;;2.45;0.70;;;;;;;;;;4199595;28;21737;-33
2022/05/19 09:14:44;;;;;;;1.98;0.55;;;;;;;;;;4163619;28;20114;-33
2022/05/19 09:16:46;;;;;;;6.53;0.93;;;;;;;;;;4165689;28;20064;-33
2022/05/19 09:18:51;;;;;;;1.80;0.73;;;;;;;;;;4164874;28;20150;-34
2022/05/19 09:20:54;;;;;;;1.05;0.60;;;;;;;;;;4164387;28;20091;-34
2022/05/19 09:22:59;;;;;;;0.90;0.60;;;;;;;;;;4166292;28;20056;-34
2022/05/19 09:25:08;;;;;;;1.80;0.70;;;;;;;;;;4168126;28;20052;-34
2022/05/19 09:27:08;;;;;;;1.40;0.55;;;;;;;;;;4164720;28;20470;-34
2022/05/19 09:29:11;;;;;;;1.20;0.57;;;;;;;;;;4161009;28;20187;-34
2022/05/19 09:31:13;;;;;;;1.27;0.80;;;;;;;;;;4165710;28;20059;-34
2022/05/19 09:33:16;;;;;;;1.00;0.60;;;;;;;;;;4178849;28;20052;-35
2022/05/19 09:35:23;;;;;;;1.95;0.70;;;;;;;;;;4176234;28;20051;-34
2022/05/19 09:37:37;;;;;;;1.33;0.70;;;;;;;;;;4166627;28;20052;-34
2022/05/19 09:39:51;;;;;;;1.77;0.52;;;;;;;;;;4169948;28;20053;-35
2022/05/19 09:41:54;;;;;;;1.20;0.60;;;;;;;;;;4169486;28;20539;-34
2022/05/19 09:43:56;;;;;;;2.97;0.70;;;;;;;;;;4165677;28;20049;-34
2022/05/19 09:46:07;;;;;;;1.20;0.70;;;;;;;;;;4162844;28;20080;-34
2022/05/19 09:48:09;;;;;;;4.47;0.95;;;;;;;;;;4166131;28;20133;-34
2022/05/19 09:50:16;;;;;;;1.70;0.52;;;;;;;;;;4170470;28;20362;-34
2022/05/19 09:52:19;;;;;;;3.03;0.82;;;;;;;;;;4165295;28;20490;-41
2022/05/19 09:54:22;;;;;;;1.05;0.50;;;;;;;;;;4164610;28;20044;-41
2022/05/19 09:56:24;;;;;;;1.05;0.60;;;;;;;;;;4168762;28;20040;-43
2022/05/19 09:58:27;;;;;;;1.40;0.82;;;;;;;;;;4166390;28;20048;-43
2022/05/19 10:00:32;;;;;;;1.00;0.80;;;;;;;;;;4164723;28;20060;-43
2022/05/19 10:02:38;;;;;;;0.70;0.50;;;;;;;;;;4163940;28;20068;-43
2022/05/19 10:04:47;;;;;;;2.00;0.75;;;;;;;;;;4153281;28;20099;-43
2022/05/19 10:07:05;;;;;;;0.75;0.70;;;;;;;;;;4167517;28;20048;-43
2022/05/19 10:09:10;;;;;;;1.00;0.68;;;;;;;;;;4167390;28;20056;-43
2022/05/19 10:11:14;;;;;;;1.75;0.70;;;;;;;;;;4171014;28;20048;-42
2022/05/19 10:13:16;;;;;;;3.40;0.82;;;;;;;;;;4171637;28;20571;-43
2022/05/19 10:15:19;;;;;;;1.27;0.70;;;;;;;;;;4197843;28;20380;-43
2022/05/19 10:17:40;;;;;;;0.98;0.88;;;;;;;;;;4175395;28;20051;-43
2022/05/19 10:19:57;;;;;;;0.70;0.50;;;;;;;;;;4197248;28;20501;-42
2022/05/19 10:22:08;;;;;;;1.83;0.70;;;;;;;;;;4172770;28;20049;-39
2022/05/19 10:24:27;;;;;;;1.02;0.50;;;;;;;;;;4169223;28;20170;-42
2022/05/19 10:26:34;;;;;;;0.73;0.57;;;;;;;;;;4163314;28;20700;-41
2022/05/19 10:31:03;;;;;;;;;;;;;;;;;;4170773;28;20471;-42
2022/05/19 10:33:06;;;;;;;1.15;0.50;;;;;;;;;;4172603;28;19924;-43
2022/05/19 10:35:19;;;;;;;1.23;0.73;;;;;;;;;;4170949;28;20131;-43
2022/05/19 10:37:40;;;;;;;2.70;0.90;;;;;;;;;;4174245;28;20442;-40
2022/05/19 10:40:00;;;;;;;3.55;0.90;;;;;;;;;;4169773;28;20520;-41
2022/05/19 10:42:04;;;;;;;1.30;0.82;;;;;;;;;;4174039;28;20692;-42
2022/05/19 10:44:16;;;;;;;3.53;0.90;;;;;;;;;;4175945;28;20056;-42
2022/05/19 10:46:20;;;;;;;3.70;1.00;;;;;;;;;;4176985;28;20105;-41
2022/05/19 10:48:30;;;;;;;1.65;0.85;;;;;;;;;;4172380;28;20183;-43
2022/05/19 10:50:38;;;;;;;1.65;0.82;;;;;;;;;;4170179;28;20093;-42
2022/05/19 10:52:39;;;;;;;1.38;0.75;;;;;;;;;;4169869;28;20053;-40
2022/05/19 10:54:48;;;;;;;2.30;1.00;;;;;;;;;;4175433;28;20049;-42
2022/05/19 10:57:08;;;;;;;1.92;1.02;;;;;;;;;;4175731;28;20057;-42
2022/05/19 10:59:09;;;;;;;;;;;;;;;;;;4169241;28;20055;-42
2022/05/19 11:01:13;;;;;;;4.93;0.77;;;;;;;;;;4170105;28;20001;-42
2022/05/19 11:03:29;;;;;;;2.08;0.60;;;;;;;;;;4171133;28;20102;-42
2022/05/19 11:05:49;;;;;;;2.63;0.70;;;;;;;;;;4162499;28;20126;-42
2022/05/19 11:08:00;;;;;;;2.17;0.70;;;;;;;;;;4167001;28;20515;-42
2022/05/19 11:10:20;;;;;;;1.15;0.60;;;;;;;;;;4166461;28;20087;-42
2022/05/19 11:12:43;;;;;;;0.95;0.50;;;;;;;;;;4163089;28;20413;-42
2022/05/19 11:15:01;;;;;;;2.38;0.95;;;;;;;;;;4172134;28;20049;-43
2022/05/19 11:17:11;;;;;;;1.23;0.77;;;;;;;;;;4167354;28;20094;-42
2022/05/19 11:19:15;;;;;;;1.38;0.80;;;;;;;;;;4170027;28;20098;-43
2022/05/19 11:21:20;;;;;;;2.83;0.90;;;;;;;;;;4170025;28;20049;-40
2022/05/19 11:23:24;;;;;;;1.17;0.70;;;;;;;;;;4170844;28;20051;-42
2022/05/19 11:27:58;;;;;;;2.75;0.70;;;;;;;;;;4169376;28;20049;-42
2022/05/19 11:30:01;;;;;;;1.48;0.80;;;;;;;;;;4169192;28;20126;-41
2022/05/19 11:32:07;;;;;;;2.60;0.50;;;;;;;;;;4167137;28;20052;-43
2022/05/19 11:34:15;;;;;;;1.35;0.70;;;;;;;;;;4173096;28;20535;-42
2022/05/19 11:36:20;;;;;;;2.85;0.60;;;;;;;;;;4173629;28;20056;-42
2022/05/19 11:38:42;;;;;;;2.15;0.88;;;;;;;;;;4171805;28;20044;-43
2022/05/19 11:41:18;;;;;;;1.35;0.65;;;;;;;;;;4169640;28;20349;-42
2022/05/19 11:43:27;;;;;;;1.60;0.75;;;;;;;;;;4123896;28;20140;-42
2022/05/19 11:45:32;;;;;;;0.73;0.70;;;;;;;;;;4148566;28;20053;-42
2022/05/19 11:57:13;;;;;;;1.45;0.73;;;;;;;;;;4171493;28;20130;-43
2022/05/19 11:59:15;;;;;;;0.82;0.45;;;;;;;;;;4171092;28;20045;-43
2022/05/19 12:01:23;;;;;;;1.17;0.75;;;;;;;;;;4169010;28;20718;-43
2022/05/19 12:03:28;;;;;;;0.75;0.65;;;;;;;;;;4164439;28;20075;-43
2022/05/19 12:05:32;;;;;;;1.63;0.68;;;;;;;;;;4201055;28;20075;-43
2022/05/19 12:07:36;;;;;;;2.20;1.08;;;;;;;;;;4170776;28;20203;-44
2022/05/19 12:09:38;;;;;;;1.40;0.50;;;;;;;;;;4164250;28;20456;-44
2022/05/19 12:11:45;;;;;;;2.72;0.80;;;;;;;;;;4167115;28;20060;-44
2022/05/19 12:13:48;;;;;;;2.10;0.55;;;;;;;;;;4170113;28;20786;-44
2022/05/19 12:15:53;;;;;;;1.85;0.73;;;;;;;;;;4165385;28;20106;-44
2022/05/19 12:17:58;;;;;;;2.05;0.65;;;;;;;;;;4178134;28;20049;-44
2022/05/19 12:20:03;;;;;;;0.98;0.63;;;;;;;;;;4173368;28;20064;-42
2022/05/19 12:22:05;;;;;;;0.60;0.45;;;;;;;;;;4176493;28;20060;-42
2022/05/19 12:24:08;;;;;;;1.50;0.60;;;;;;;;;;4169678;28;20175;-43
2022/05/19 12:26:15;;;;;;;1.10;0.55;;;;;;;;;;4170287;28;20105;-43
2022/05/19 12:28:17;;;;;;;3.17;0.60;;;;;;;;;;4176102;28;20396;-43
2022/05/19 12:32:59;;;;;;;1.90;0.40;;;;;;;;;;4170361;28;20049;-43
2022/05/19 12:35:03;;;;;;;1.20;0.47;;;;;;;;;;4168758;28;20449;-43
2022/05/19 12:37:07;;;;;;;4.13;0.95;;;;;;;;;;4170589;28;20502;-44
2022/05/19 12:39:09;;;;;;;1.30;0.77;;;;;;;;;;4170684;28;20576;-43
2022/05/19 12:41:32;;;;;;;1.67;0.65;;;;;;;;;;4170529;28;20071;-44
2022/05/19 12:43:37;;;;;;;2.15;0.68;;;;;;;;;;4172075;28;20704;-43